createdAt,value
2018-11-27T00:01:35.911Z,1.40
2018-11-27T00:04:04.180Z,1.40
2018-11-27T00:06:32.379Z,1.30
2018-11-27T00:09:00.615Z,1.30
2018-11-27T00:11:28.837Z,1.30
2018-11-27T00:13:57.042Z,1.30
2018-11-27T00:16:25.312Z,1.30
2018-11-27T00:18:53.535Z,1.30
2018-11-27T00:21:21.797Z,1.30
2018-11-27T00:23:49.993Z,1.30
2018-11-27T00:26:18.139Z,1.20
2018-11-27T00:28:46.353Z,1.20
2018-11-27T00:31:14.655Z,1.20
2018-11-27T00:33:42.868Z,1.10
2018-11-27T00:36:11.191Z,1.10
2018-11-27T00:38:39.746Z,1.20
2018-11-27T00:41:08.116Z,1.20
2018-11-27T00:43:36.454Z,1.20
2018-11-27T00:46:04.758Z,1.20
2018-11-27T00:48:33.201Z,1.30
2018-11-27T00:51:01.701Z,1.30
2018-11-27T00:53:30.436Z,1.20
2018-11-27T00:55:58.877Z,1.20
2018-11-27T00:58:28.249Z,1.10
2018-11-27T01:00:56.521Z,1.00
2018-11-27T01:03:25.040Z,1.00
2018-11-27T01:05:53.367Z,1.00
2018-11-27T01:11:06.294Z,1.00
2018-11-27T01:13:35.177Z,1.00
2018-11-27T01:16:03.723Z,1.10
2018-11-27T01:18:32.147Z,1.00
2018-11-27T01:21:00.787Z,1.10
2018-11-27T01:23:29.496Z,1.10
2018-11-27T01:26:03.587Z,1.10
2018-11-27T01:28:32.427Z,1.10
2018-11-27T01:38:55.223Z,1.20
2018-11-27T01:41:43.319Z,1.00
2018-11-27T01:44:11.786Z,1.00
2018-11-27T01:46:40.229Z,0.90
2018-11-27T01:49:08.650Z,0.90
2018-11-27T01:51:36.986Z,0.90
2018-11-27T01:54:05.773Z,0.90
2018-11-27T01:56:34.068Z,0.90
2018-11-27T01:59:02.381Z,0.90
2018-11-27T02:01:30.692Z,0.80
2018-11-27T02:03:58.966Z,0.80
2018-11-27T02:06:27.359Z,0.90
2018-11-27T02:08:55.599Z,1.00
2018-11-27T02:11:24.030Z,0.90
2018-11-27T02:13:52.380Z,0.90
2018-11-27T02:16:20.941Z,0.90
2018-11-27T02:18:52.341Z,1.00
2018-11-27T02:21:20.905Z,1.00
2018-11-27T02:23:49.340Z,1.00
2018-11-27T02:26:17.657Z,1.10
2018-11-27T02:28:46.455Z,1.10
2018-11-27T02:31:14.955Z,1.10
2018-11-27T02:33:43.533Z,1.20
2018-11-27T02:36:12.124Z,1.20
2018-11-27T02:38:40.503Z,1.20
2018-11-27T02:41:08.815Z,1.20
2018-11-27T02:43:37.147Z,1.30
2018-11-27T02:46:05.976Z,1.30
2018-11-27T02:48:34.706Z,1.40
2018-11-27T02:51:03.085Z,1.40
2018-11-27T02:53:31.319Z,1.50
2018-11-27T02:55:59.664Z,1.60
2018-11-27T02:58:28.149Z,1.50
2018-11-27T03:00:56.532Z,1.60
2018-11-27T03:03:24.882Z,1.70
2018-11-27T03:05:53.211Z,1.70
2018-11-27T03:08:22.668Z,1.70
2018-11-27T03:10:50.216Z,1.90
2018-11-27T03:13:18.959Z,1.90
2018-11-27T03:15:47.240Z,1.90
2018-11-27T03:18:15.869Z,1.90
2018-11-27T03:20:44.621Z,1.90
2018-11-27T03:23:12.965Z,2.10
2018-11-27T03:25:41.355Z,2.10
2018-11-27T03:28:09.779Z,2.10
2018-11-27T03:30:38.659Z,2.00
2018-11-27T03:33:07.047Z,2.00
2018-11-27T03:35:35.360Z,2.10
2018-11-27T03:38:03.761Z,2.20
2018-11-27T03:40:32.082Z,2.20
2018-11-27T03:43:00.635Z,2.30
2018-11-27T03:45:29.024Z,2.20
2018-11-27T03:47:57.251Z,2.20
2018-11-27T03:50:27.155Z,2.10
2018-11-27T03:52:55.589Z,2.00
2018-11-27T03:55:24.184Z,2.10
2018-11-27T03:57:52.714Z,2.10
2018-11-27T04:00:25.633Z,2.20
2018-11-27T04:03:04.296Z,2.20
2018-11-27T04:05:32.773Z,2.30
2018-11-27T04:08:02.396Z,2.40
2018-11-27T04:10:31.259Z,2.40
2018-11-27T04:13:00.168Z,2.40
2018-11-27T04:15:30.225Z,2.40
2018-11-27T04:17:59.838Z,2.30
2018-11-27T04:20:28.651Z,2.30
2018-11-27T04:22:58.055Z,2.30
2018-11-27T04:25:26.985Z,2.30
2018-11-27T04:27:55.350Z,2.20
2018-11-27T04:30:23.934Z,2.20
2018-11-27T04:32:52.467Z,2.20
2018-11-27T04:35:21.833Z,2.10
2018-11-27T04:37:50.384Z,2.10
2018-11-27T04:40:20.780Z,2.10
2018-11-27T04:42:49.260Z,2.10
2018-11-27T04:45:18.949Z,2.10
2018-11-27T04:47:47.512Z,2.10
2018-11-27T04:50:16.677Z,2.10
2018-11-27T04:52:45.124Z,2.20
2018-11-27T04:55:14.137Z,2.20
2018-11-27T04:57:42.636Z,2.20
2018-11-27T05:00:14.419Z,2.20
2018-11-27T05:02:42.628Z,2.20
2018-11-27T05:05:11.005Z,2.20
2018-11-27T05:07:39.550Z,2.20
2018-11-27T05:10:10.859Z,2.30
2018-11-27T05:12:39.514Z,2.20
2018-11-27T05:15:12.501Z,2.30
2018-11-27T05:17:40.987Z,2.30
2018-11-27T05:20:10.178Z,2.30
2018-11-27T05:22:38.447Z,2.40
2018-11-27T05:25:10.006Z,2.50
2018-11-27T05:27:38.312Z,2.60
2018-11-27T05:30:13.771Z,2.60
2018-11-27T05:32:42.406Z,2.60
2018-11-27T05:35:13.698Z,2.70
2018-11-27T05:37:42.619Z,2.70
2018-11-27T05:40:13.071Z,2.70
2018-11-27T05:42:41.539Z,2.70
2018-11-27T05:45:12.279Z,2.60
2018-11-27T05:47:40.693Z,2.50
2018-11-27T05:50:11.111Z,2.50
2018-11-27T05:52:39.554Z,2.40
2018-11-27T05:55:08.593Z,2.40
2018-11-27T05:57:36.957Z,2.50
2018-11-27T06:00:11.993Z,2.50
2018-11-27T06:02:40.665Z,2.50
2018-11-27T06:05:14.637Z,2.60
2018-11-27T06:07:43.086Z,2.50
2018-11-27T06:10:13.515Z,2.50
2018-11-27T06:12:42.018Z,2.50
2018-11-27T06:15:14.135Z,2.50
2018-11-27T06:17:42.687Z,2.50
2018-11-27T06:20:13.067Z,2.50
2018-11-27T06:22:41.290Z,2.40
2018-11-27T06:25:12.063Z,2.20
2018-11-27T06:27:40.227Z,2.20
2018-11-27T06:30:20.965Z,2.10
2018-11-27T06:32:51.666Z,2.10
2018-11-27T06:35:23.028Z,2.10
2018-11-27T06:37:53.211Z,2.20
2018-11-27T06:40:23.153Z,2.10
2018-11-27T06:42:51.499Z,2.10
2018-11-27T06:45:20.459Z,2.10
2018-11-27T06:47:49.524Z,2.20
2018-11-27T06:50:19.379Z,2.10
2018-11-27T06:52:47.620Z,2.20
2018-11-27T06:55:19.014Z,2.20
2018-11-27T06:57:47.389Z,2.10
2018-11-27T07:00:17.595Z,2.20
2018-11-27T07:02:45.755Z,2.20
2018-11-27T07:11:42.918Z,2.20
2018-11-27T07:17:07.946Z,2.10
2018-11-27T07:19:50.187Z,2.20
2018-11-27T07:22:29.848Z,2.30
2018-11-27T07:29:12.095Z,2.30
2018-11-27T07:31:40.862Z,2.40
2018-11-27T07:34:10.829Z,2.50
2018-11-27T07:36:39.390Z,2.40
2018-11-27T07:39:08.137Z,2.40
2018-11-27T07:41:39.738Z,2.40
2018-11-27T07:44:08.547Z,2.30
2018-11-27T07:46:39.372Z,2.30
2018-11-27T07:49:12.251Z,2.30
2018-11-27T07:51:41.003Z,2.30
2018-11-27T07:54:11.028Z,2.30
2018-11-27T07:56:55.899Z,2.40
2018-11-27T07:59:38.079Z,2.40
2018-11-27T08:02:11.100Z,2.50
2018-11-27T08:04:50.440Z,2.40
2018-11-27T08:10:31.431Z,2.50
2018-11-27T08:13:09.247Z,2.50
2018-11-27T08:15:39.436Z,2.60
2018-11-27T08:18:11.776Z,2.70
2018-11-27T08:20:46.354Z,2.80
2018-11-27T08:26:12.717Z,3.00
2018-11-27T08:28:48.601Z,3.00
2018-11-27T08:31:38.877Z,3.00
2018-11-27T08:34:32.622Z,3.10
2018-11-27T08:37:13.789Z,3.20
2018-11-27T08:39:42.351Z,3.10
2018-11-27T08:42:13.442Z,3.10
2018-11-27T08:44:49.886Z,3.00
2018-11-27T08:47:18.554Z,2.90
2018-11-27T08:49:47.045Z,2.80
2018-11-27T08:52:15.570Z,2.70
2018-11-27T08:54:44.681Z,2.70
2018-11-27T08:57:14.229Z,2.90
2018-11-27T08:59:57.507Z,3.10
2018-11-27T09:02:27.059Z,3.20
2018-11-27T09:04:55.528Z,3.20
2018-11-27T09:07:28.133Z,3.20
2018-11-27T09:13:01.046Z,3.30
2018-11-27T09:15:29.863Z,3.40
2018-11-27T09:18:07.304Z,3.50
2018-11-27T09:20:35.920Z,3.50
2018-11-27T09:23:04.430Z,3.60
2018-11-27T09:25:33.051Z,3.50
2018-11-27T09:28:01.373Z,3.60
2018-11-27T09:30:29.948Z,3.70
2018-11-27T09:32:58.777Z,3.80
2018-11-27T09:35:27.107Z,3.80
2018-11-27T09:37:55.630Z,3.80
2018-11-27T09:40:24.145Z,4.00
2018-11-27T09:42:52.593Z,4.00
2018-11-27T09:45:22.100Z,4.00
2018-11-27T09:47:51.739Z,4.00
2018-11-27T09:50:20.604Z,4.10
2018-11-27T09:52:49.387Z,4.20
2018-11-27T09:55:20.685Z,4.30
2018-11-27T09:57:49.453Z,4.30
2018-11-27T10:00:19.225Z,4.30
2018-11-27T10:02:48.599Z,4.30
2018-11-27T10:05:17.277Z,4.20
2018-11-27T10:07:45.986Z,4.20
2018-11-27T10:10:16.036Z,4.40
2018-11-27T10:12:44.323Z,4.50
2018-11-27T10:15:16.900Z,4.50
2018-11-27T10:17:46.343Z,4.60
2018-11-27T10:20:17.856Z,4.50
2018-11-27T10:22:47.215Z,4.40
2018-11-27T10:25:15.677Z,4.30
2018-11-27T10:27:44.665Z,4.30
2018-11-27T10:30:20.937Z,4.30
2018-11-27T10:32:50.360Z,4.40
2018-11-27T10:35:22.478Z,4.40
2018-11-27T10:37:53.684Z,4.40
2018-11-27T10:40:22.303Z,4.40
2018-11-27T10:42:51.249Z,4.40
2018-11-27T10:45:20.638Z,4.40
2018-11-27T10:47:51.052Z,4.60
2018-11-27T10:50:19.717Z,4.50
2018-11-27T10:52:49.895Z,4.60
2018-11-27T10:55:19.197Z,4.60
2018-11-27T10:57:47.679Z,4.60
2018-11-27T11:00:24.006Z,4.50
2018-11-27T11:02:57.583Z,4.40
2018-11-27T11:05:27.758Z,4.40
2018-11-27T11:07:55.183Z,4.40
2018-11-27T11:10:23.605Z,4.50
2018-11-27T11:12:52.020Z,4.50
2018-11-27T11:15:20.689Z,4.60
2018-11-27T11:17:49.155Z,4.50
2018-11-27T11:20:17.642Z,4.60
2018-11-27T11:22:47.271Z,4.70
2018-11-27T11:25:18.641Z,4.70
2018-11-27T11:27:50.600Z,4.70
2018-11-27T11:30:19.812Z,4.70
2018-11-27T11:32:48.532Z,4.80
2018-11-27T11:35:17.293Z,4.90
2018-11-27T11:37:45.749Z,4.90
2018-11-27T11:40:16.089Z,4.90
2018-11-27T11:42:44.496Z,5.00
2018-11-27T11:45:12.925Z,5.10
2018-11-27T11:47:41.449Z,5.10
2018-11-27T11:50:13.680Z,5.20
2018-11-27T11:52:45.388Z,5.20
2018-11-27T11:55:13.235Z,5.20
2018-11-27T11:57:41.785Z,5.20
2018-11-27T12:00:16.100Z,5.20
2018-11-27T12:02:44.515Z,5.20
2018-11-27T12:05:12.826Z,5.20
2018-11-27T12:07:41.159Z,5.30
2018-11-27T12:10:13.419Z,5.30
2018-11-27T12:12:42.091Z,5.30
2018-11-27T12:15:17.662Z,5.40
2018-11-27T12:17:46.352Z,5.40
2018-11-27T12:20:16.753Z,5.50
2018-11-27T12:22:47.416Z,5.40
2018-11-27T12:25:15.943Z,5.40
2018-11-27T12:27:44.171Z,5.40
2018-11-27T12:30:14.907Z,5.30
2018-11-27T12:32:49.379Z,5.30
2018-11-27T12:35:18.284Z,5.30
2018-11-27T12:38:15.367Z,5.40
2018-11-27T12:41:02.768Z,5.40
2018-11-27T12:43:47.447Z,5.30
2018-11-27T12:49:10.430Z,5.40
2018-11-27T12:51:40.593Z,5.40
2018-11-27T12:54:11.843Z,5.30
2018-11-27T12:56:43.664Z,5.30
2018-11-27T12:59:08.653Z,5.30
2018-11-27T13:01:36.936Z,5.30
2018-11-27T13:04:05.508Z,5.30
2018-11-27T13:06:33.984Z,5.30
2018-11-27T13:09:02.316Z,5.30
2018-11-27T13:11:31.097Z,5.40
2018-11-27T13:13:59.912Z,5.40
2018-11-27T13:16:28.561Z,5.40
2018-11-27T13:18:58.331Z,5.40
2018-11-27T13:21:31.604Z,5.40
2018-11-27T13:23:59.981Z,5.40
2018-11-27T13:26:28.927Z,5.40
2018-11-27T13:28:59.280Z,5.40
2018-11-27T13:31:28.850Z,5.40
2018-11-27T13:34:06.503Z,5.40
2018-11-27T13:36:35.761Z,5.40
2018-11-27T13:39:18.350Z,5.40
2018-11-27T13:41:50.814Z,5.40
2018-11-27T13:44:27.765Z,5.40
2018-11-27T13:46:58.710Z,5.40
2018-11-27T13:49:46.526Z,5.40
2018-11-27T14:06:26.281Z,5.40
2018-11-27T14:13:22.248Z,5.10
2018-11-27T14:15:50.809Z,5.10
2018-11-27T14:18:19.301Z,5.10
2018-11-27T14:20:49.913Z,5.10
2018-11-27T14:27:35.930Z,5.10
2018-11-27T14:34:45.101Z,5.00
2018-11-27T14:43:28.135Z,4.90
2018-11-27T14:46:33.961Z,4.80
2018-11-27T14:49:07.193Z,4.80
2018-11-27T14:51:39.815Z,4.80
2018-11-27T14:54:28.063Z,4.80
2018-11-27T14:56:56.790Z,4.80
2018-11-27T14:59:29.405Z,4.70
2018-11-27T15:01:58.715Z,4.70
2018-11-27T15:04:40.113Z,4.70
2018-11-27T15:07:08.521Z,4.60
2018-11-27T15:09:36.740Z,4.50
2018-11-27T15:12:04.961Z,4.60
2018-11-27T15:14:33.232Z,4.60
2018-11-27T15:17:01.467Z,4.60
2018-11-27T15:19:29.737Z,4.70
2018-11-27T15:21:57.928Z,4.70
2018-11-27T15:24:26.194Z,4.60
2018-11-27T15:26:54.592Z,4.50
2018-11-27T15:29:22.891Z,4.60
2018-11-27T15:31:51.147Z,4.50
2018-11-27T15:34:19.382Z,4.60
2018-11-27T15:36:47.606Z,4.70
2018-11-27T15:39:15.875Z,4.70
2018-11-27T15:41:44.046Z,4.60
2018-11-27T15:44:12.207Z,4.60
2018-11-27T15:46:40.362Z,4.50
2018-11-27T15:49:08.559Z,4.50
2018-11-27T15:51:36.781Z,4.40
2018-11-27T15:54:05.033Z,4.30
2018-11-27T15:56:33.348Z,4.20
2018-11-27T15:59:01.689Z,4.10
2018-11-27T16:01:29.956Z,4.10
2018-11-27T16:03:58.268Z,4.10
2018-11-27T16:06:27.866Z,4.00
2018-11-27T16:08:56.327Z,3.90
2018-11-27T16:11:24.566Z,3.90
2018-11-27T16:13:55.344Z,3.80
2018-11-27T16:16:20.947Z,3.80
2018-11-27T16:18:49.560Z,3.80
2018-11-27T16:21:18.076Z,3.80
2018-11-27T16:23:46.352Z,3.90
2018-11-27T16:26:14.896Z,3.90
2018-11-27T16:28:43.132Z,3.90
2018-11-27T16:31:11.603Z,3.90
2018-11-27T16:33:40.007Z,3.90
2018-11-27T16:36:08.877Z,4.00
2018-11-27T16:38:40.107Z,4.10
2018-11-27T16:41:09.391Z,4.10
2018-11-27T16:43:37.866Z,4.10
2018-11-27T16:46:11.340Z,4.20
2018-11-27T16:48:39.773Z,4.30
2018-11-27T16:51:11.326Z,4.20
2018-11-27T16:53:45.216Z,4.20
2018-11-27T16:56:14.996Z,4.10
2018-11-27T16:58:45.203Z,4.00
2018-11-27T17:01:16.802Z,3.90
2018-11-27T17:03:46.598Z,3.70
2018-11-27T17:06:15.111Z,3.60
2018-11-27T17:08:43.399Z,3.40
2018-11-27T17:11:11.667Z,3.30
2018-11-27T17:13:39.951Z,3.10
2018-11-27T17:16:08.432Z,3.00
2018-11-27T17:18:36.850Z,2.90
2018-11-27T17:21:13.742Z,2.90
2018-11-27T17:23:42.396Z,2.80
2018-11-27T17:26:11.295Z,2.70
2018-11-27T17:28:39.691Z,2.80
2018-11-27T17:31:10.541Z,2.70
2018-11-27T17:33:45.092Z,2.80
2018-11-27T17:36:13.609Z,2.80
2018-11-27T17:38:41.824Z,2.90
2018-11-27T17:41:10.331Z,3.00
2018-11-27T17:43:38.942Z,3.10
2018-11-27T17:46:07.524Z,3.10
2018-11-27T17:48:36.805Z,3.20
2018-11-27T17:51:05.498Z,3.20
2018-11-27T17:53:33.705Z,3.20
2018-11-27T17:56:02.757Z,3.20
2018-11-27T17:58:31.949Z,3.10
2018-11-27T18:01:02.576Z,3.10
2018-11-27T18:03:34.539Z,3.10
2018-11-27T18:06:04.821Z,3.00
2018-11-27T18:08:34.432Z,3.00
2018-11-27T18:11:04.703Z,2.90
2018-11-27T18:13:34.179Z,2.90
2018-11-27T18:16:04.386Z,3.00
2018-11-27T18:18:33.262Z,2.90
2018-11-27T18:21:01.944Z,2.90
2018-11-27T18:23:31.692Z,2.90
2018-11-27T18:26:00.460Z,2.80
2018-11-27T18:28:29.865Z,2.70
2018-11-27T18:31:01.888Z,2.70
2018-11-27T18:33:30.525Z,2.70
2018-11-27T18:36:03.636Z,2.70
2018-11-27T18:38:33.084Z,2.70
2018-11-27T18:41:02.132Z,2.70
2018-11-27T18:43:31.154Z,2.70
2018-11-27T18:46:01.049Z,2.60
2018-11-27T18:48:30.151Z,2.60
2018-11-27T18:50:59.456Z,2.50
2018-11-27T18:54:00.972Z,2.40
2018-11-27T18:56:31.902Z,2.30
2018-11-27T18:59:04.824Z,2.20
2018-11-27T19:01:40.024Z,2.10
2018-11-27T19:06:56.309Z,1.90
2018-11-27T19:09:34.840Z,1.80
2018-11-27T19:14:54.891Z,1.70
2018-11-27T19:17:24.140Z,1.70
2018-11-27T19:26:04.423Z,1.70
2018-11-27T19:33:06.160Z,1.80
2018-11-27T19:35:45.888Z,1.90
2018-11-27T19:41:07.094Z,2.00
2018-11-27T19:43:35.613Z,2.00
2018-11-27T19:46:04.141Z,2.10
2018-11-27T19:48:32.894Z,2.10
2018-11-27T19:54:28.594Z,2.20
2018-11-27T19:57:14.082Z,2.20
2018-11-27T19:59:46.543Z,2.20
2018-11-27T20:02:15.062Z,2.20
2018-11-27T20:04:45.089Z,2.10
2018-11-27T20:07:15.029Z,2.00
2018-11-27T20:09:52.578Z,2.00
2018-11-27T20:12:23.253Z,1.90
2018-11-27T20:14:54.731Z,1.70
2018-11-27T20:17:23.808Z,1.70
2018-11-27T20:19:56.358Z,1.60
2018-11-27T20:22:25.217Z,1.50
2018-11-27T20:24:54.817Z,1.40
2018-11-27T20:27:27.369Z,1.30
2018-11-27T20:29:56.500Z,1.20
2018-11-27T20:32:25.203Z,1.10
2018-11-27T20:34:55.675Z,1.10
2018-11-27T20:37:24.417Z,1.00
2018-11-27T20:39:53.883Z,0.90
2018-11-27T20:42:23.260Z,0.90
2018-11-27T20:44:58.024Z,0.90
2018-11-27T20:47:45.058Z,0.90
2018-11-27T20:58:42.706Z,0.80
2018-11-27T21:01:23.204Z,0.80
2018-11-27T21:41:44.284Z,0.70
2018-11-27T21:47:05.866Z,0.40
2018-11-27T21:49:35.682Z,0.40
2018-11-27T21:52:04.316Z,0.40
2018-11-27T21:55:10.353Z,0.40
2018-11-27T21:57:43.886Z,0.40
2018-11-27T22:00:25.276Z,0.40
2018-11-27T22:02:56.262Z,0.40
2018-11-27T22:05:27.202Z,0.40
2018-11-27T22:10:35.239Z,0.30
2018-11-27T22:13:07.133Z,0.30
2018-11-27T22:15:46.228Z,0.30
2018-11-27T22:21:06.283Z,0.30
2018-11-27T22:23:35.073Z,0.30
2018-11-27T22:26:05.423Z,0.30
2018-11-27T22:28:35.007Z,0.30
2018-11-27T22:31:03.637Z,0.30
2018-11-27T22:33:32.234Z,0.40
2018-11-27T22:36:01.076Z,0.30
2018-11-27T22:38:29.685Z,0.30
2018-11-27T22:40:58.972Z,0.20
2018-11-27T22:43:27.523Z,0.20
2018-11-27T22:45:56.824Z,0.20
2018-11-27T22:48:25.877Z,0.20
2018-11-27T22:50:54.545Z,0.20
2018-11-27T22:53:23.395Z,0.20
2018-11-27T22:55:52.379Z,0.20
2018-11-27T22:58:21.510Z,0.20
2018-11-27T23:00:50.522Z,0.20
2018-11-27T23:03:19.722Z,0.20
2018-11-27T23:05:48.397Z,0.10
2018-11-27T23:08:17.838Z,0.10
2018-11-27T23:10:48.260Z,0.00
2018-11-27T23:13:17.001Z,0.00
2018-11-27T23:15:46.271Z,0.00
2018-11-27T23:18:14.761Z,0.00
2018-11-27T23:20:43.427Z,0.00
2018-11-27T23:23:12.257Z,0.00
2018-11-27T23:25:41.024Z,0.00
2018-11-27T23:28:09.930Z,0.00
2018-11-27T23:30:38.501Z,-0.10
2018-11-27T23:33:07.166Z,-0.10
2018-11-27T23:35:35.715Z,-0.10
2018-11-27T23:38:05.095Z,-0.20
2018-11-27T23:40:34.180Z,-0.20
2018-11-27T23:43:03.789Z,-0.20
2018-11-27T23:45:33.765Z,-0.20
2018-11-27T23:48:04.261Z,-0.20
2018-11-27T23:50:50.459Z,-0.20
2018-11-27T23:53:24.917Z,-0.20
2018-11-27T23:56:03.286Z,-0.20
2018-11-27T23:58:38.645Z,-0.20
